LICCLIMF

Guest
Details From LICC - Catania Fontanarossa
To LIMF - Torino Caselle
Flight Number -
Tags Generated
Created
Modified
Stats Distance 572 nm / 1,060 km
Max Altitude 0 ft / 0 m
Waypoints 4
Social Downloads 4
Likes 0
Share VATSIM

Download

Looking for another format? Having issues loading an existing format? Contact us
Advertisement - Login to hide

Notes

Generated

Route

LICC VALMA TOP68 LIMF

ID Type Via Altitude Latitude Longitude Leg Dist Tot Dist Heading (true) Name
O LICC APT - 0 ft / 0 m 37.46563˚ 15.05269˚ - 0 nm - -
VALMA FIX - 0 ft / 0 m 41.57722˚ 11.42139˚ 298 nm 298 nm 327° / 325° -
TOP68 FIX - 0 ft / 0 m 45.03739˚ 7.90953˚ 258 nm 557 nm 325° / 322° -
O LIMF APT - 0 ft / 0 m 45.21559˚ 7.65057˚ 15 nm 572 nm 314° / 314° -

Altitude Profile

Advertisement - Login to hide

Weather


0- 5 10 15 20 25 30 35+ Temperature / ° C

Clouds and Precipitation
Forecast for 2017-12-14 00:00 UTC. Updated 2 hours ago

Ground ~20,000 ft ~40,000 ft Winds

LICC

Details ICAO LICC (CTA)
Name Catania Fontanarossa
Region Italy
Timezone Europe/Rome (UTC+1.0)
Stats Elevation 39 ft / 12 m (AMSL)
Location 37.466779° 15.066401°
Runways 1
Magnetic Variation 3.215° E

METAR

LICC 140020Z 25009KT 9999 FEW090 10/07 Q1021

Decode

TAF

TAF LICC 132300Z 1400/1424 26010KT 9999 FEW050

Decode

Departure Runways

ID Width Length Bearing (true) Bearing (mag) Surface Threshold Offset Overrun Length
08 148 ft / 45 m 7,985 ft / 2,434 m 83.94° 80.72° Asphalt 312 ft / 95 m 0 ft / 0 m
26 148 ft / 45 m 7,985 ft / 2,434 m 263.95° 260.73° Asphalt 279 ft / 85 m 0 ft / 0 m

LIMF

Details ICAO LIMF (TRN)
Name Torino Caselle
Region Italy
Timezone Europe/Rome (UTC+1.0)
Stats Elevation 989 ft / 301 m (AMSL)
Location 45.200763° 7.649630°
Runways 1
Magnetic Variation 2.122° E

METAR

LIMF 140020Z VRB01KT 9999 FEW040 00/M04 Q1011

Decode

TAF

TAF LIMF 132300Z 1400/1424 VRB05KT CAVOK

Decode

Destination Runways

ID Width Length Bearing (true) Bearing (mag) Surface Threshold Offset Overrun Length
18 197 ft / 60 m 10,835 ft / 3,303 m 182.56° 180.44° Asphalt 2,378 ft / 725 m 970 ft / 296 m
36 197 ft / 60 m 10,835 ft / 3,303 m 2.56° 0.44° Asphalt 1,148 ft / 350 m 0 ft / 0 m

Approach Navaids

Runway Type Ident Frequency Range Bearing (true) Bearing (mag) Slope Elevation
36 Localiser ITOC 108.70 MHz 18 nm / 33 km 2.56° 0.44° - 989 ft / 301 m (AMSL)
36 Glidescope ITOC 108.70 MHz 10 nm / 19 km 2.56° 0.44° 3.00° 989 ft / 301 m (AMSL)
36 DME ITOC 108.70 MHz 25 nm / 46 km - - - 989 ft / 301 m (AMSL)

Popular Alternatives